sensor_id;sensor_type;location;lat;lon;timestamp;pressure;altitude;pressure_sealevel;temperature;humidity
40075;BME280;26529;51.530;11.754;2023-04-26T00:00:13;100046.22;;;20.15;44.71
40075;BME280;26529;51.530;11.754;2023-04-26T00:02:39;100051.56;;;20.15;44.68
40075;BME280;26529;51.530;11.754;2023-04-26T00:05:05;100052.53;;;20.14;44.75
40075;BME280;26529;51.530;11.754;2023-04-26T00:07:31;100052.53;;;20.14;44.67
40075;BME280;26529;51.530;11.754;2023-04-26T00:09:58;100046.47;;;20.12;44.74
40075;BME280;26529;51.530;11.754;2023-04-26T00:12:24;100053.47;;;20.13;44.72
40075;BME280;26529;51.530;11.754;2023-04-26T00:14:49;100050.81;;;20.13;44.58
40075;BME280;26529;51.530;11.754;2023-04-26T00:17:15;100057.09;;;20.12;44.83
40075;BME280;26529;51.530;11.754;2023-04-26T00:19:40;100059.78;;;20.12;44.76
40075;BME280;26529;51.530;11.754;2023-04-26T00:22:06;100060.75;;;20.11;44.68
40075;BME280;26529;51.530;11.754;2023-04-26T00:24:33;100056.25;;;20.11;44.81
40075;BME280;26529;51.530;11.754;2023-04-26T00:26:59;100060.75;;;20.11;44.69
40075;BME280;26529;51.530;11.754;2023-04-26T00:29:26;100055.41;;;20.11;44.86
40075;BME280;26529;51.530;11.754;2023-04-26T00:31:51;100052.00;;;20.09;44.78
40075;BME280;26529;51.530;11.754;2023-04-26T00:34:17;100058.19;;;20.09;44.74
40075;BME280;26529;51.530;11.754;2023-04-26T00:36:42;100060.75;;;20.11;44.79
40075;BME280;26529;51.530;11.754;2023-04-26T00:39:08;100058.19;;;20.09;44.77
40075;BME280;26529;51.530;11.754;2023-04-26T00:41:34;100065.19;;;20.10;44.74
40075;BME280;26529;51.530;11.754;2023-04-26T00:44:00;100062.63;;;20.09;44.64
40075;BME280;26529;51.530;11.754;2023-04-26T00:46:25;100069.88;;;20.06;44.77
40075;BME280;26529;51.530;11.754;2023-04-26T00:48:53;100066.25;;;20.08;44.83
40075;BME280;26529;51.530;11.754;2023-04-26T00:51:19;100071.59;;;20.08;44.81
40075;BME280;26529;51.530;11.754;2023-04-26T00:53:45;100071.59;;;20.08;44.79
40075;BME280;26529;51.530;11.754;2023-04-26T00:56:11;100071.59;;;20.08;44.77
40075;BME280;26529;51.530;11.754;2023-04-26T00:58:37;100066.25;;;20.08;44.78
40075;BME280;26529;51.530;11.754;2023-04-26T01:01:03;100077.88;;;20.06;44.66
40075;BME280;26529;51.530;11.754;2023-04-26T01:03:29;100082.22;;;20.08;44.78
40075;BME280;26529;51.530;11.754;2023-04-26T01:05:55;100078.84;;;20.05;44.92
40075;BME280;26529;51.530;11.754;2023-04-26T01:08:21;100082.47;;;20.04;44.78
40075;BME280;26529;51.530;11.754;2023-04-26T01:10:48;100084.16;;;20.05;44.78
40075;BME280;26529;51.530;11.754;2023-04-26T01:13:14;100083.28;;;20.05;44.75
40075;BME280;26529;51.530;11.754;2023-04-26T01:15:44;100087.78;;;20.04;44.73
40075;BME280;26529;51.530;11.754;2023-04-26T01:18:10;100091.41;;;20.03;44.79
40075;BME280;26529;51.530;11.754;2023-04-26T01:20:36;100093.09;;;20.04;44.79
40075;BME280;26529;51.530;11.754;2023-04-26T01:23:02;100086.09;;;20.03;44.65
40075;BME280;26529;51.530;11.754;2023-04-26T01:25:27;100093.09;;;20.04;44.78
40075;BME280;26529;51.530;11.754;2023-04-26T01:27:53;100094.91;;;20.04;44.60
40075;BME280;26529;51.530;11.754;2023-04-26T01:30:19;100089.72;;;20.02;44.81
40075;BME280;26529;51.530;11.754;2023-04-26T01:32:44;100082.66;;;20.01;44.58
40075;BME280;26529;51.530;11.754;2023-04-26T01:35:10;100091.41;;;20.03;44.76
40075;BME280;26529;51.530;11.754;2023-04-26T01:37:36;100080.00;;;20.01;44.74
40075;BME280;26529;51.530;11.754;2023-04-26T01:40:01;100081.81;;;20.01;44.76
40075;BME280;26529;51.530;11.754;2023-04-26T01:42:30;100077.34;;;20.01;44.74
40075;BME280;26529;51.530;11.754;2023-04-26T01:44:58;100087.97;;;20.01;44.86
40075;BME280;26529;51.530;11.754;2023-04-26T01:47:23;100084.59;;;19.99;44.80
40075;BME280;26529;51.530;11.754;2023-04-26T01:49:51;100088.84;;;20.02;44.87
40075;BME280;26529;51.530;11.754;2023-04-26T01:52:20;100082.66;;;20.01;44.69
40075;BME280;26529;51.530;11.754;2023-04-26T01:54:45;100076.50;;;20.01;44.88
40075;BME280;26529;51.530;11.754;2023-04-26T01:57:11;100076.50;;;20.01;44.67
40075;BME280;26529;51.530;11.754;2023-04-26T01:59:36;100074.81;;;20.00;44.78
40075;BME280;26529;51.530;11.754;2023-04-26T02:02:02;100086.28;;;20.00;44.74
40075;BME280;26529;51.530;11.754;2023-04-26T02:04:27;100079.28;;;19.99;44.68
40075;BME280;26529;51.530;11.754;2023-04-26T02:06:53;100079.28;;;19.99;44.89
40075;BME280;26529;51.530;11.754;2023-04-26T02:09:18;100084.59;;;19.99;44.77
40075;BME280;26529;51.530;11.754;2023-04-26T02:11:44;100082.78;;;20.00;44.73
40075;BME280;26529;51.530;11.754;2023-04-26T02:14:09;100085.56;;;19.98;44.68
40075;BME280;26529;51.530;11.754;2023-04-26T02:16:35;100089.09;;;19.99;44.75
40075;BME280;26529;51.530;11.754;2023-04-26T02:19:00;100082.88;;;19.98;44.82
40075;BME280;26529;51.530;11.754;2023-04-26T02:21:28;100088.22;;;19.98;44.73
40075;BME280;26529;51.530;11.754;2023-04-26T02:23:55;100093.53;;;19.98;44.73
40075;BME280;26529;51.530;11.754;2023-04-26T02:26:22;100092.66;;;19.98;44.82
40075;BME280;26529;51.530;11.754;2023-04-26T02:28:47;100097.16;;;19.97;44.49
40075;BME280;26529;51.530;11.754;2023-04-26T02:31:13;100099.81;;;19.97;44.61
40075;BME280;26529;51.530;11.754;2023-04-26T02:33:39;100097.16;;;19.97;44.74
40075;BME280;26529;51.530;11.754;2023-04-26T02:36:05;100098.13;;;19.96;44.91
40075;BME280;26529;51.530;11.754;2023-04-26T02:38:34;100102.47;;;19.97;44.74
40075;BME280;26529;51.530;11.754;2023-04-26T02:41:02;100097.16;;;19.97;44.74
40075;BME280;26529;51.530;11.754;2023-04-26T02:43:28;100097.16;;;19.97;44.75
40075;BME280;26529;51.530;11.754;2023-04-26T02:45:54;100093.72;;;19.95;44.68
40075;BME280;26529;51.530;11.754;2023-04-26T02:48:23;100083.09;;;19.95;44.73
40075;BME280;26529;51.530;11.754;2023-04-26T02:50:49;100079.50;;;19.96;44.80
40075;BME280;26529;51.530;11.754;2023-04-26T02:53:15;100080.44;;;19.95;44.94
40075;BME280;26529;51.530;11.754;2023-04-26T02:55:42;100078.69;;;19.94;44.80
40075;BME280;26529;51.530;11.754;2023-04-26T02:58:07;100074.34;;;19.93;44.73
40075;BME280;26529;51.530;11.754;2023-04-26T03:00:34;100075.09;;;19.95;44.75
40075;BME280;26529;51.530;11.754;2023-04-26T03:02:59;100086.69;;;19.94;44.89
40075;BME280;26529;51.530;11.754;2023-04-26T03:05:25;100080.53;;;19.93;44.80
40075;BME280;26529;51.530;11.754;2023-04-26T03:07:51;100088.50;;;19.93;44.72
40075;BME280;26529;51.530;11.754;2023-04-26T03:10:16;100083.28;;;19.92;44.84
40075;BME280;26529;51.530;11.754;2023-04-26T03:12:42;100082.44;;;19.91;44.78
40075;BME280;26529;51.530;11.754;2023-04-26T03:15:08;100090.53;;;19.90;44.79
40075;BME280;26529;51.530;11.754;2023-04-26T03:17:34;100092.13;;;19.92;44.84
40075;BME280;26529;51.530;11.754;2023-04-26T03:20:00;100090.41;;;19.91;44.80
40075;BME280;26529;51.530;11.754;2023-04-26T03:22:26;100088.59;;;19.92;44.80
40075;BME280;26529;51.530;11.754;2023-04-26T03:24:52;100098.38;;;19.91;44.86
40075;BME280;26529;51.530;11.754;2023-04-26T03:27:18;100097.56;;;19.91;44.74
40075;BME280;26529;51.530;11.754;2023-04-26T03:29:43;100090.41;;;19.91;44.73
40075;BME280;26529;51.530;11.754;2023-04-26T03:32:09;100091.38;;;19.90;44.77
40075;BME280;26529;51.530;11.754;2023-04-26T03:34:34;100096.59;;;19.92;44.78
40075;BME280;26529;51.530;11.754;2023-04-26T03:37:00;100092.34;;;19.89;44.66
40075;BME280;26529;51.530;11.754;2023-04-26T03:39:27;100096.69;;;19.90;44.65
40075;BME280;26529;51.530;11.754;2023-04-26T03:41:53;100091.50;;;19.89;44.72
40075;BME280;26529;51.530;11.754;2023-04-26T03:44:18;100093.19;;;19.90;44.82
40075;BME280;26529;51.530;11.754;2023-04-26T03:46:44;100099.47;;;19.89;44.73
40075;BME280;26529;51.530;11.754;2023-04-26T03:49:09;100088.84;;;19.89;44.66
40075;BME280;26529;51.530;11.754;2023-04-26T03:51:35;100102.25;;;19.87;44.73
40075;BME280;26529;51.530;11.754;2023-04-26T03:54:00;100103.06;;;19.88;44.83
40075;BME280;26529;51.530;11.754;2023-04-26T03:56:26;100103.06;;;19.88;44.54
40075;BME280;26529;51.530;11.754;2023-04-26T03:58:52;100100.41;;;19.88;44.79
40075;BME280;26529;51.530;11.754;2023-04-26T04:01:18;100099.47;;;19.89;44.60
40075;BME280;26529;51.530;11.754;2023-04-26T04:03:44;100099.56;;;19.87;44.64
40075;BME280;26529;51.530;11.754;2023-04-26T04:06:10;100101.38;;;19.87;44.84
40075;BME280;26529;51.530;11.754;2023-04-26T04:08:36;100103.06;;;19.88;44.69
40075;BME280;26529;51.530;11.754;2023-04-26T04:11:02;100101.38;;;19.87;44.71
40075;BME280;26529;51.530;11.754;2023-04-26T04:13:28;100101.50;;;19.85;44.81
40075;BME280;26529;51.530;11.754;2023-04-26T04:15:54;100107.66;;;19.86;44.73
40075;BME280;26529;51.530;11.754;2023-04-26T04:18:19;100107.66;;;19.86;44.76
40075;BME280;26529;51.530;11.754;2023-04-26T04:20:45;100105.00;;;19.86;44.77
40075;BME280;26529;51.530;11.754;2023-04-26T04:23:11;100108.63;;;19.85;44.65
40075;BME280;26529;51.530;11.754;2023-04-26T04:25:38;100107.66;;;19.86;44.73
40075;BME280;26529;51.530;11.754;2023-04-26T04:28:07;100105.00;;;19.86;44.69
40075;BME280;26529;51.530;11.754;2023-04-26T04:30:33;100107.75;;;19.84;44.69
40075;BME280;26529;51.530;11.754;2023-04-26T04:32:59;100112.03;;;19.87;44.67
40075;BME280;26529;51.530;11.754;2023-04-26T04:35:25;100120.22;;;19.84;44.79
40075;BME280;26529;51.530;11.754;2023-04-26T04:37:54;100120.22;;;19.84;44.74
40075;BME280;26529;51.530;11.754;2023-04-26T04:40:23;100122.88;;;19.84;44.82
40075;BME280;26529;51.530;11.754;2023-04-26T04:42:50;100131.59;;;19.86;44.74
40075;BME280;26529;51.530;11.754;2023-04-26T04:45:16;100129.03;;;19.84;44.76
40075;BME280;26529;51.530;11.754;2023-04-26T04:47:43;100140.56;;;19.85;44.67
40075;BME280;26529;51.530;11.754;2023-04-26T04:50:10;100138.00;;;19.83;44.82
40075;BME280;26529;51.530;11.754;2023-04-26T04:52:35;100140.56;;;19.85;44.71
40075;BME280;26529;51.530;11.754;2023-04-26T04:55:02;100140.66;;;19.83;44.77
40075;BME280;26529;51.530;11.754;2023-04-26T04:57:29;100144.16;;;19.84;44.78
40075;BME280;26529;51.530;11.754;2023-04-26T04:59:55;100143.22;;;19.85;44.87
40075;BME280;26529;51.530;11.754;2023-04-26T05:02:20;100146.84;;;19.84;44.75
40075;BME280;26529;51.530;11.754;2023-04-26T05:04:46;100149.50;;;19.84;44.81
40075;BME280;26529;51.530;11.754;2023-04-26T05:07:12;100155.78;;;19.83;44.71
40075;BME280;26529;51.530;11.754;2023-04-26T05:09:41;100154.81;;;19.84;44.71
40075;BME280;26529;51.530;11.754;2023-04-26T05:12:06;100153.84;;;19.85;44.65
40075;BME280;26529;51.530;11.754;2023-04-26T05:14:32;100153.94;;;19.83;44.77
40075;BME280;26529;51.530;11.754;2023-04-26T05:16:58;100160.13;;;19.84;44.71
40075;BME280;26529;51.530;11.754;2023-04-26T05:19:24;100160.97;;;19.84;44.74
40075;BME280;26529;51.530;11.754;2023-04-26T05:21:51;100160.03;;;19.85;44.68
40075;BME280;26529;51.530;11.754;2023-04-26T05:24:16;100160.13;;;19.84;44.68
40075;BME280;26529;51.530;11.754;2023-04-26T05:26:42;100161.09;;;19.83;44.84
40075;BME280;26529;51.530;11.754;2023-04-26T05:29:31;100159.28;;;19.83;44.76
40075;BME280;26529;51.530;11.754;2023-04-26T05:32:02;100163.75;;;19.83;44.69
40075;BME280;26529;51.530;11.754;2023-04-26T05:34:51;100165.56;;;19.82;44.70
40075;BME280;26529;51.530;11.754;2023-04-26T05:37:17;100169.91;;;19.83;44.78
40075;BME280;26529;51.530;11.754;2023-04-26T05:39:42;100166.41;;;19.83;44.78
40075;BME280;26529;51.530;11.754;2023-04-26T05:42:09;100178.66;;;19.85;44.78
40075;BME280;26529;51.530;11.754;2023-04-26T05:44:34;100176.09;;;19.84;44.70
40075;BME280;26529;51.530;11.754;2023-04-26T05:47:00;100179.50;;;19.86;44.70
40075;BME280;26529;51.530;11.754;2023-04-26T05:49:26;100182.91;;;19.88;44.82
40075;BME280;26529;51.530;11.754;2023-04-26T05:51:52;100183.75;;;19.88;44.94
40075;BME280;26529;51.530;11.754;2023-04-26T05:54:17;100183.66;;;19.90;45.10
40075;BME280;26529;51.530;11.754;2023-04-26T05:56:43;100189.72;;;19.92;45.38
40075;BME280;26529;51.530;11.754;2023-04-26T05:59:09;100184.41;;;19.92;45.09
40075;BME280;26529;51.530;11.754;2023-04-26T06:01:34;100185.28;;;19.92;45.42
40075;BME280;26529;51.530;11.754;2023-04-26T06:04:01;100194.00;;;19.95;45.42
40075;BME280;26529;51.530;11.754;2023-04-26T06:06:32;100192.28;;;19.93;45.43
40075;BME280;26529;51.530;11.754;2023-04-26T06:08:57;100198.44;;;19.94;45.44
40075;BME280;26529;51.530;11.754;2023-04-26T06:11:23;100192.09;;;19.97;45.46
40075;BME280;26529;51.530;11.754;2023-04-26T06:13:48;100196.59;;;19.96;45.66
40075;BME280;26529;51.530;11.754;2023-04-26T06:16:14;100203.59;;;19.97;45.67
40075;BME280;26529;51.530;11.754;2023-04-26T06:18:39;100198.28;;;19.97;45.51
40075;BME280;26529;51.530;11.754;2023-04-26T06:21:05;100198.28;;;19.97;45.73
40075;BME280;26529;51.530;11.754;2023-04-26T06:23:31;100205.31;;;19.98;45.47
40075;BME280;26529;51.530;11.754;2023-04-26T06:25:56;100194.66;;;19.98;45.68
40075;BME280;26529;51.530;11.754;2023-04-26T06:28:22;100194.66;;;19.98;45.72
40075;BME280;26529;51.530;11.754;2023-04-26T06:30:48;100197.31;;;19.98;45.86
40075;BME280;26529;51.530;11.754;2023-04-26T06:33:13;100199.03;;;19.99;45.89
40075;BME280;26529;51.530;11.754;2023-04-26T06:35:39;100198.06;;;20.00;45.72
40075;BME280;26529;51.530;11.754;2023-04-26T06:38:06;100192.75;;;20.00;45.88
40075;BME280;26529;51.530;11.754;2023-04-26T06:40:31;100193.69;;;19.99;45.84
40075;BME280;26529;51.530;11.754;2023-04-26T06:42:57;100192.75;;;20.00;45.80
40075;BME280;26529;51.530;11.754;2023-04-26T06:45:35;100202.41;;;20.01;45.95
40075;BME280;26529;51.530;11.754;2023-04-26T06:48:01;100205.09;;;20.01;45.97
40075;BME280;26529;51.530;11.754;2023-04-26T06:50:29;100201.50;;;20.02;45.91
40075;BME280;26529;51.530;11.754;2023-04-26T06:52:54;100205.09;;;20.01;45.83
40075;BME280;26529;51.530;11.754;2023-04-26T06:55:20;100204.16;;;20.02;46.09
40075;BME280;26529;51.530;11.754;2023-04-26T06:57:46;100208.50;;;20.03;45.93
40075;BME280;26529;51.530;11.754;2023-04-26T07:00:12;100204.16;;;20.02;45.96
40075;BME280;26529;51.530;11.754;2023-04-26T07:02:38;100213.84;;;20.03;46.12
40075;BME280;26529;51.530;11.754;2023-04-26T07:05:03;100208.50;;;20.03;46.00
40075;BME280;26529;51.530;11.754;2023-04-26T07:07:29;100204.16;;;20.02;46.13
40075;BME280;26529;51.530;11.754;2023-04-26T07:09:54;100205.72;;;20.05;46.05
40075;BME280;26529;51.530;11.754;2023-04-26T07:12:20;100201.25;;;20.05;46.08
40075;BME280;26529;51.530;11.754;2023-04-26T07:14:45;100198.69;;;20.04;46.07
40075;BME280;26529;51.530;11.754;2023-04-26T07:17:11;100201.25;;;20.05;45.97
40075;BME280;26529;51.530;11.754;2023-04-26T07:19:37;100202.97;;;20.06;46.04
40075;BME280;26529;51.530;11.754;2023-04-26T07:22:02;100210.00;;;20.08;45.94
40075;BME280;26529;51.530;11.754;2023-04-26T07:24:29;100197.63;;;20.06;46.08
40075;BME280;26529;51.530;11.754;2023-04-26T07:26:55;100205.63;;;20.06;45.93
40075;BME280;26529;51.530;11.754;2023-04-26T07:29:20;100206.50;;;20.07;46.08
40075;BME280;26529;51.530;11.754;2023-04-26T07:31:47;100206.38;;;20.09;46.10
40075;BME280;26529;51.530;11.754;2023-04-26T07:34:13;100206.38;;;20.09;45.95
40075;BME280;26529;51.530;11.754;2023-04-26T07:36:38;100206.38;;;20.09;45.91
40075;BME280;26529;51.530;11.754;2023-04-26T07:39:04;100213.41;;;20.10;46.00
40075;BME280;26529;51.530;11.754;2023-04-26T07:41:30;100207.13;;;20.11;45.97
40075;BME280;26529;51.530;11.754;2023-04-26T07:43:56;100208.94;;;20.10;46.05
40075;BME280;26529;51.530;11.754;2023-04-26T07:46:22;100215.13;;;20.11;45.91
40075;BME280;26529;51.530;11.754;2023-04-26T07:48:47;100209.78;;;20.11;45.98
40075;BME280;26529;51.530;11.754;2023-04-26T07:51:13;100212.47;;;20.11;46.00
40075;BME280;26529;51.530;11.754;2023-04-26T07:53:39;100214.16;;;20.12;45.97
40075;BME280;26529;51.530;11.754;2023-04-26T07:56:06;100209.78;;;20.11;45.98
40075;BME280;26529;51.530;11.754;2023-04-26T07:58:33;100206.16;;;20.12;45.95
40075;BME280;26529;51.530;11.754;2023-04-26T08:00:59;100211.50;;;20.12;45.89
40075;BME280;26529;51.530;11.754;2023-04-26T08:03:25;100212.34;;;20.12;45.76
40075;BME280;26529;51.530;11.754;2023-04-26T08:05:52;100214.06;;;20.13;45.79
40075;BME280;26529;51.530;11.754;2023-04-26T08:08:18;100209.69;;;20.12;45.96
40075;BME280;26529;51.530;11.754;2023-04-26T08:10:44;100217.56;;;20.14;45.92
40075;BME280;26529;51.530;11.754;2023-04-26T08:13:10;100221.09;;;20.14;45.90
40075;BME280;26529;51.530;11.754;2023-04-26T08:15:35;100221.09;;;20.14;45.82
40075;BME280;26529;51.530;11.754;2023-04-26T08:18:01;100221.91;;;20.15;45.94
40075;BME280;26529;51.530;11.754;2023-04-26T08:20:27;100213.00;;;20.16;45.99
40075;BME280;26529;51.530;11.754;2023-04-26T08:22:55;100218.31;;;20.16;45.80
40075;BME280;26529;51.530;11.754;2023-04-26T08:25:22;100214.69;;;20.17;45.83
40075;BME280;26529;51.530;11.754;2023-04-26T08:27:48;100220.03;;;20.17;45.57
40075;BME280;26529;51.530;11.754;2023-04-26T08:30:13;100217.34;;;20.17;45.77
40075;BME280;26529;51.530;11.754;2023-04-26T08:32:39;100221.63;;;20.19;45.75
40075;BME280;26529;51.530;11.754;2023-04-26T08:35:05;100217.34;;;20.17;45.82
40075;BME280;26529;51.530;11.754;2023-04-26T08:37:31;100214.69;;;20.17;45.70
40075;BME280;26529;51.530;11.754;2023-04-26T08:39:57;100217.22;;;20.18;45.78
40075;BME280;26529;51.530;11.754;2023-04-26T08:42:25;100212.78;;;20.19;45.71
40075;BME280;26529;51.530;11.754;2023-04-26T08:44:52;100212.03;;;20.17;45.93
40075;BME280;26529;51.530;11.754;2023-04-26T08:47:21;100213.72;;;20.18;45.80
40075;BME280;26529;51.530;11.754;2023-04-26T08:49:55;100210.84;;;20.21;45.65
40075;BME280;26529;51.530;11.754;2023-04-26T08:52:28;100210.13;;;20.19;45.72
40075;BME280;26529;51.530;11.754;2023-04-26T08:54:55;100211.06;;;20.18;45.75
40075;BME280;26529;51.530;11.754;2023-04-26T08:57:22;100219.88;;;20.18;45.79
40075;BME280;26529;51.530;11.754;2023-04-26T08:59:49;100222.69;;;20.17;45.90
40075;BME280;26529;51.530;11.754;2023-04-26T09:02:17;100225.34;;;20.17;45.82
40075;BME280;26529;51.530;11.754;2023-04-26T09:04:44;100219.16;;;20.16;45.88
40075;BME280;26529;51.530;11.754;2023-04-26T09:07:13;100225.34;;;20.17;45.87
40075;BME280;26529;51.530;11.754;2023-04-26T09:09:41;100220.03;;;20.17;45.62
40075;BME280;26529;51.530;11.754;2023-04-26T09:12:07;100227.03;;;20.18;45.82
40075;BME280;26529;51.530;11.754;2023-04-26T09:14:33;100220.03;;;20.17;45.82
40075;BME280;26529;51.530;11.754;2023-04-26T09:16:59;100224.16;;;20.21;45.71
40075;BME280;26529;51.530;11.754;2023-04-26T09:19:34;100219.78;;;20.20;45.86
40075;BME280;26529;51.530;11.754;2023-04-26T09:22:01;100226.09;;;20.19;45.81
40075;BME280;26529;51.530;11.754;2023-04-26T09:24:27;100234.81;;;20.21;45.91
40075;BME280;26529;51.530;11.754;2023-04-26T09:27:02;100229.38;;;20.23;45.74
40075;BME280;26529;51.530;11.754;2023-04-26T09:29:28;100232.16;;;20.21;45.87
40075;BME280;26529;51.530;11.754;2023-04-26T09:31:53;100224.06;;;20.23;45.66
40075;BME280;26529;51.530;11.754;2023-04-26T09:34:19;100227.47;;;20.25;45.87
40075;BME280;26529;51.530;11.754;2023-04-26T09:36:51;100225.56;;;20.27;45.71
40075;BME280;26529;51.530;11.754;2023-04-26T09:39:35;100223.72;;;20.27;45.82
40075;BME280;26529;51.530;11.754;2023-04-26T09:42:09;100217.25;;;20.31;45.79
40075;BME280;26529;51.530;11.754;2023-04-26T09:44:35;100220.88;;;20.30;45.80
40075;BME280;26529;51.530;11.754;2023-04-26T09:49:46;100213.63;;;20.32;45.93
40075;BME280;26529;51.530;11.754;2023-04-26T09:52:13;100222.34;;;20.34;45.78
40075;BME280;26529;51.530;11.754;2023-04-26T09:54:46;100222.34;;;20.34;46.09
40075;BME280;26529;51.530;11.754;2023-04-26T09:57:13;100228.63;;;20.33;46.09
40075;BME280;26529;51.530;11.754;2023-04-26T09:59:44;100224.28;;;20.32;46.11
40075;BME280;26529;51.530;11.754;2023-04-26T10:02:17;100220.66;;;20.33;46.29
40075;BME280;26529;51.530;11.754;2023-04-26T10:04:45;100225.97;;;20.33;46.10
40075;BME280;26529;51.530;11.754;2023-04-26T10:07:13;100221.63;;;20.32;46.30
40075;BME280;26529;51.530;11.754;2023-04-26T10:09:42;100221.63;;;20.32;46.38
40075;BME280;26529;51.530;11.754;2023-04-26T10:12:12;100218.94;;;20.32;46.19
40075;BME280;26529;51.530;11.754;2023-04-26T10:14:38;100225.97;;;20.33;46.49
40075;BME280;26529;51.530;11.754;2023-04-26T10:17:04;100225.97;;;20.33;46.51
40075;BME280;26529;51.530;11.754;2023-04-26T10:19:34;100227.66;;;20.34;46.22
40075;BME280;26529;51.530;11.754;2023-04-26T10:22:07;100223.84;;;20.39;46.26
40075;BME280;26529;51.530;11.754;2023-04-26T10:24:34;100223.63;;;20.42;46.34
40075;BME280;26529;51.530;11.754;2023-04-26T10:27:00;100219.91;;;20.44;46.16
40075;BME280;26529;51.530;11.754;2023-04-26T10:32:22;100214.91;;;20.40;46.24
40075;BME280;26529;51.530;11.754;2023-04-26T10:40:38;100213.84;;;20.42;46.16
40075;BME280;26529;51.530;11.754;2023-04-26T10:45:36;100216.28;;;20.45;45.96
40075;BME280;26529;51.530;11.754;2023-04-26T10:58:48;100217.38;;;20.43;46.16
40075;BME280;26529;51.530;11.754;2023-04-26T11:03:40;100216.16;;;20.47;46.01
40075;BME280;26529;51.530;11.754;2023-04-26T11:06:07;100208.19;;;20.47;45.96
40075;BME280;26529;51.530;11.754;2023-04-26T11:08:34;100218.72;;;20.49;46.03
40075;BME280;26529;51.530;11.754;2023-04-26T11:11:04;100207.84;;;20.52;45.98
40075;BME280;26529;51.530;11.754;2023-04-26T11:13:35;100207.00;;;20.51;46.53
40075;BME280;26529;51.530;11.754;2023-04-26T11:16:02;100210.41;;;20.53;46.40
40075;BME280;26529;51.530;11.754;2023-04-26T11:18:30;100198.06;;;20.52;46.35
40075;BME280;26529;51.530;11.754;2023-04-26T11:20:57;100203.50;;;20.51;46.58
40075;BME280;26529;51.530;11.754;2023-04-26T11:23:23;100214.03;;;20.52;46.26
40075;BME280;26529;51.530;11.754;2023-04-26T11:25:49;100208.94;;;20.49;46.51
40075;BME280;26529;51.530;11.754;2023-04-26T11:28:15;100206.28;;;20.49;46.27
40075;BME280;26529;51.530;11.754;2023-04-26T11:30:41;100207.22;;;20.48;46.21
40075;BME280;26529;51.530;11.754;2023-04-26T11:33:15;100208.94;;;20.49;46.06
40075;BME280;26529;51.530;11.754;2023-04-26T11:35:43;100206.28;;;20.49;46.02
40075;BME280;26529;51.530;11.754;2023-04-26T11:38:08;100208.94;;;20.49;45.90
40075;BME280;26529;51.530;11.754;2023-04-26T11:40:34;100203.63;;;20.49;45.96
40075;BME280;26529;51.530;11.754;2023-04-26T11:43:05;100207.00;;;20.51;45.92
40075;BME280;26529;51.530;11.754;2023-04-26T11:45:32;100206.06;;;20.52;46.13
40075;BME280;26529;51.530;11.754;2023-04-26T11:48:00;100203.38;;;20.52;46.35
40075;BME280;26529;51.530;11.754;2023-04-26T11:50:26;100201.69;;;20.51;46.38
40075;BME280;26529;51.530;11.754;2023-04-26T11:52:54;100211.47;;;20.51;46.51
40075;BME280;26529;51.530;11.754;2023-04-26T11:55:23;100207.00;;;20.51;46.58
40075;BME280;26529;51.530;11.754;2023-04-26T11:57:51;100207.00;;;20.51;46.55
40075;BME280;26529;51.530;11.754;2023-04-26T12:00:17;100206.16;;;20.51;46.58
40075;BME280;26529;51.530;11.754;2023-04-26T12:02:47;100207.84;;;20.52;46.51
40075;BME280;26529;51.530;11.754;2023-04-26T12:05:23;100198.06;;;20.52;46.29
40075;BME280;26529;51.530;11.754;2023-04-26T12:07:51;100205.09;;;20.53;46.15
40075;BME280;26529;51.530;11.754;2023-04-26T12:10:24;100207.66;;;20.55;46.12
40075;BME280;26529;51.530;11.754;2023-04-26T12:12:50;100209.25;;;20.57;46.08
40075;BME280;26529;51.530;11.754;2023-04-26T12:15:17;100208.28;;;20.58;45.95
40075;BME280;26529;51.530;11.754;2023-04-26T12:20:18;100202.97;;;20.58;45.73
40075;BME280;26529;51.530;11.754;2023-04-26T12:23:16;100204.66;;;20.59;45.87
40075;BME280;26529;51.530;11.754;2023-04-26T12:25:55;100196.75;;;20.58;45.64
40075;BME280;26529;51.530;11.754;2023-04-26T12:28:21;100198.47;;;20.59;45.82
40075;BME280;26529;51.530;11.754;2023-04-26T12:30:48;100206.44;;;20.59;45.77
40075;BME280;26529;51.530;11.754;2023-04-26T12:33:14;100206.34;;;20.60;45.69
40075;BME280;26529;51.530;11.754;2023-04-26T12:35:40;100204.66;;;20.59;45.68
40075;BME280;26529;51.530;11.754;2023-04-26T12:38:06;100204.66;;;20.59;45.90
40075;BME280;26529;51.530;11.754;2023-04-26T12:40:32;100208.06;;;20.61;45.86
40075;BME280;26529;51.530;11.754;2023-04-26T12:42:57;100208.91;;;20.62;45.92
40075;BME280;26529;51.530;11.754;2023-04-26T12:45:23;100207.84;;;20.65;45.73
40075;BME280;26529;51.530;11.754;2023-04-26T12:47:52;100198.88;;;20.66;45.81
40075;BME280;26529;51.530;11.754;2023-04-26T12:50:18;100191.63;;;20.68;45.59
40075;BME280;26529;51.530;11.754;2023-04-26T12:52:44;100210.06;;;20.71;45.68
40075;BME280;26529;51.530;11.754;2023-04-26T12:55:11;100204.41;;;20.76;45.62
40075;BME280;26529;51.530;11.754;2023-04-26T12:57:38;100205.28;;;20.76;45.49
40075;BME280;26529;51.530;11.754;2023-04-26T13:00:04;100199.94;;;20.76;45.44
40075;BME280;26529;51.530;11.754;2023-04-26T13:02:31;100201.66;;;20.77;45.73
40075;BME280;26529;51.530;11.754;2023-04-26T13:04:57;100210.38;;;20.79;45.28
40075;BME280;26529;51.530;11.754;2023-04-26T13:07:22;100203.13;;;20.81;45.47